Monday, January 21, 2019, 5:51 PM EST
Back to Local

KASH, Nashua, Boire Field Airport

Location: Nashua, NH, United States Lat: 42.782
Local Time: 5:51 PM EST (22:51 GMT) Lon: -71.515
Time Zone: US/Eastern Elev: 200 ft

Show me the last for .
Show Decoded

2019-01-21 16:56 METAR KASH 212156Z 30015G25KT 3SM -SN BLSN OVC040 M16/M22 A2991 RMK AO2 SLP142
                 P0000 T11611217 $ =
2019-01-21 16:21 METAR KASH 212121Z 30019G25KT 1SM -SN BLSN OVC043 M17/M21 A2989 RMK AO2 P0000 $
                 =
2019-01-21 15:56 METAR KASH 212056Z 31014G25KT 1 1/2SM -SN BLSN OVC043 M17/M21 A2988 RMK AO2 PK
                 WND 31030/2034 SLP129 P0000 60000 T11671211 53027 $ =
2019-01-21 15:37 METAR KASH 212037Z 30018G30KT 1SM -SN OVC040 M17/M22 A2986 RMK AO2 PK WND
                 31030/2034 P0000 $ =
2019-01-21 15:18 METAR KASH 212018Z COR 31020G26KT 1 3/4SM -SN BKN040 OVC050 M16/M23 A2985 RMK
                 AO2 PK WND 32026/2018 VIS 3/4V4 P0000 $ =
2019-01-21 14:56 METAR KASH 211956Z 30017G24KT 6SM -SN OVC048 M16/M23 A2984 RMK AO2 PK WND
                 32029/1937 SNB13E23B51 SLP116 P0000 T11611228 $ =
2019-01-21 13:56 METAR KASH 211856Z 29017G24KT 10SM OVC047 M16/M23 A2981 RMK AO2 PK WND
                 31028/1820 SLP107 T11611233 $ =
2019-01-21 12:56 METAR KASH 211756Z 30016G22KT 9SM BKN038 OVC049 M16/M23 A2979 RMK AO2 SNB05E29
                 SLP101 P0000 60000 T11561228 11156 21172 58001 $ =
2019-01-21 11:56 METAR KASH 211656Z COR 31014G22KT 7SM BLSN FEW035 OVC049 M16/M23 A2979 RMK AO2
                 PK WND 30026/1632 SNE56 SLP101 P0000 T11611228 $ =
2019-01-21 10:56 METAR KASH 211556Z 31016G24KT 1/2SM SN SCT028 OVC035 M17/M21 A2980 RMK AO2
                 SLP105 P0000 T11721211 $ =
2019-01-21 09:56 METAR KASH 211456Z 30016G24KT 7SM -SN BKN037 OVC048 M17/M23 A2980 RMK AO2 PK WND
                 30029/1432 SLP103 P0000 60000 T11721233 53025 $ =
2019-01-21 08:56 METAR KASH 211356Z 31016G25KT 7SM -SN OVC050 M17/M22 A2976 RMK AO2 SNB19 SLP090
                 P0000 T11721222 $ =
2019-01-21 07:56 METAR KASH 211256Z 29012G23KT 9SM OVC050 M17/M23 A2972 RMK AO2 SLP077 T11721228
                 $ =
2019-01-21 06:56 METAR KASH 211156Z 30011G17KT 10SM SCT050 M17/M23 A2969 RMK AO2 SNE24 SLP065
                 P0000 60000 T11721233 11156 21172 53026 $ =
2019-01-21 05:56 METAR KASH 211056Z AUTO 30011G17KT 9SM -SN CLR M17/M23 A2966 RMK AO2 SNB52
                 SLP054 P0000 T11721228 FZRANO $ =
2019-01-21 04:56 METAR KASH 210956Z AUTO 30013G19KT 10SM CLR M17/M23 A2963 RMK AO2 SLP047
                 T11721228 FZRANO $ =
2019-01-21 03:56 METAR KASH 210856Z AUTO 30012G18KT 10SM CLR M17/M23 A2961 RMK AO2 SLP039
                 T11671228 51018 FZRANO $ =
2019-01-21 02:56 METAR KASH 210756Z AUTO 30011G16KT 10SM CLR M17/M23 A2960 RMK AO2 PK WND
                 31028/0723 SLP037 T11671228 FZRANO $ =
2019-01-21 01:56 METAR KASH 210656Z AUTO 31017G27KT 10SM CLR M16/M22 A2958 RMK AO2 PK WND
                 32027/0651 SLP029 T11611222 FZRANO $ =
2019-01-21 00:56 METAR KASH 210556Z AUTO 31021G29KT 10SM CLR M16/M22 A2956 RMK AO2 PK WND
                 31031/0521 SLP022 60000 T11611222 11061 21161 51024 FZRANO $ =
2019-01-20 23:56 METAR KASH 210456Z AUTO 30015G23KT 10SM CLR M16/M22 A2955 RMK AO2 PK WND
                 30028/0411 SLP018 T11561217 410501156 FZRANO $ =
2019-01-20 22:56 METAR KASH 210356Z AUTO 30015G24KT 270V330 10SM CLR M15/M21 A2953 RMK AO2 PK WND
                 30030/0344 SLP011 T11501206 FZRANO $ =
2019-01-20 21:56 METAR KASH 210256Z AUTO 31023G34KT 10SM CLR M13/M19 A2949 RMK AO2 PK WND
                 32038/0225 SNB25E39 SLP997 P0000 60000 T11331189 51043 FZRANO $ =
2019-01-20 20:56 METAR KASH 210156Z 30017G23KT 10SM SCT029 M11/M16 A2946 RMK AO2 PK WND
                 29026/0133 SLP986 T11111161 $ =
2019-01-20 19:56 METAR KASH 210056Z 31019G24KT 10SM SCT027 BKN050 M08/M13 A2941 RMK AO2 PK WND
                 31031/0016 SNE01 SLP972 P0000 T10831128 $ =
2019-01-20 18:56 METAR KASH 202356Z 32021G25KT 6SM -SN BKN065 M06/M09 A2936 RMK AO2 SNE20B50
                 SLP954 P0000 60000 T10611089 11050 21089 51017 $ =
2019-01-20 18:03 METAR KASH 202303Z 30013KT 3SM -SN BR BKN045 OVC055 M05/M07 A2934 RMK AO2 P0000
                 $ =
2019-01-20 17:56 METAR KASH 202256Z COR 31012KT 3SM -SN BR BKN045 OVC055 M05/M07 A2934 RMK AO2
                 SLP947 P0000 T10501067 $ =

Support USWX by starting your Amazon purchase here.